createdAt,value
2022-09-22T00:14:10.681Z,2.80
2022-09-22T00:30:59.040Z,3.00
2022-09-22T00:47:50.617Z,3.50
2022-09-22T01:04:40.163Z,4.10
2022-09-22T01:21:40.204Z,3.10
2022-09-22T01:38:33.626Z,3.60
2022-09-22T01:55:27.453Z,4.20
2022-09-22T02:12:16.205Z,4.60
2022-09-22T02:29:09.285Z,3.80
2022-09-22T02:46:03.898Z,4.70
2022-09-22T03:02:52.486Z,5.90
2022-09-22T03:19:40.634Z,6.40
2022-09-22T03:36:29.073Z,6.20
2022-09-22T03:53:17.414Z,6.60
2022-09-22T04:10:06.432Z,5.90
2022-09-22T04:27:18.664Z,6.70
2022-09-22T04:44:03.218Z,5.60
2022-09-22T05:00:51.420Z,5.60
2022-09-22T05:17:39.942Z,7.50
2022-09-22T05:34:28.183Z,7.10
2022-09-22T05:51:16.400Z,5.90
2022-09-22T06:08:06.964Z,5.10
2022-09-22T06:24:55.234Z,4.70
2022-09-22T06:41:44.969Z,6.00
2022-09-22T06:58:47.003Z,4.80
2022-09-22T07:15:41.932Z,5.60
2022-09-22T07:32:35.410Z,5.30
2022-09-22T07:49:23.626Z,4.00
2022-09-22T08:06:13.861Z,4.70
2022-09-22T08:23:03.535Z,4.00
2022-09-22T08:39:52.082Z,3.20
2022-09-22T08:56:46.182Z,3.00
2022-09-22T09:13:51.604Z,2.60
2022-09-22T12:18:48.053Z,1.60
2022-09-22T12:35:36.418Z,1.80
2022-09-22T12:53:03.982Z,1.60
2022-09-22T13:10:12.489Z,2.00
2022-09-22T13:27:08.733Z,1.80
2022-09-22T13:44:00.543Z,1.80
2022-09-22T14:01:14.182Z,1.90
2022-09-22T14:34:53.722Z,1.80
2022-09-22T14:51:46.183Z,1.90
2022-09-22T15:08:34.571Z,1.90
2022-09-22T15:25:23.468Z,1.90
2022-09-22T15:42:12.940Z,1.30
2022-09-22T15:59:02.719Z,1.60
2022-09-22T16:15:50.725Z,1.60
2022-09-22T16:32:39.857Z,2.00
2022-09-22T16:49:27.900Z,2.10
2022-09-22T17:06:18.570Z,3.10
2022-09-22T17:23:07.173Z,2.60
2022-09-22T17:39:55.229Z,3.10
2022-09-22T17:56:43.123Z,3.20
2022-09-22T18:13:32.347Z,3.30
2022-09-22T18:30:22.667Z,3.00
2022-09-22T18:47:13.396Z,3.00
2022-09-22T19:04:01.597Z,3.10
2022-09-22T19:20:49.767Z,3.80
2022-09-22T19:37:38.647Z,4.00
2022-09-22T19:54:27.338Z,3.60
2022-09-22T20:11:25.936Z,3.90
2022-09-22T20:28:15.196Z,4.00
2022-09-22T20:45:02.941Z,4.00
2022-09-22T21:01:51.760Z,4.70
2022-09-22T21:18:40.431Z,4.50
2022-09-22T21:35:28.309Z,3.80
2022-09-22T21:52:16.568Z,4.60
2022-09-22T22:09:07.209Z,3.50
2022-09-22T22:26:01.250Z,3.40
2022-09-22T22:42:49.622Z,3.80
2022-09-22T22:59:37.673Z,3.80
2022-09-22T23:16:27.505Z,4.80
2022-09-22T23:33:15.579Z,3.80
2022-09-22T23:50:03.546Z,3.80
